Time;durP1;ratioP1;P1;durP2;ratioP2;P2;SDS_P1;SDS_P2;PMS_P1;PMS_P2;Temp;Humidity;BMP_temperature;BMP_pressure;BME280_temperature;BME280_humidity;BME280_pressure;Samples;Min_cycle;Max_cycle;Signal;HPM_P1;HPM_P2
2022/07/18 00:01:59;;;;;;;5.07;2.55;;;19.30;84.80;;;19.48;62.53;100644.78;5037321;28;20226;-79
2022/07/18 00:04:28;;;;;;;8.60;3.28;;;;;;;19.43;61.68;100627.91;5045215;28;20203;-78
2022/07/18 00:06:56;;;;;;;4.50;2.38;;;19.20;84.80;;;19.53;59.89;100630.44;5041069;28;20198;-79
2022/07/18 00:09:25;;;;;;;7.72;3.53;;;19.20;85.10;;;19.54;59.25;100629.50;5036987;28;20569;-79
2022/07/18 00:11:58;;;;;;;4.05;2.25;;;19.20;84.70;;;19.45;61.14;100636.78;5050600;28;20198;-79
2022/07/18 00:14:26;;;;;;;37.30;34.97;;;19.20;85.60;;;19.42;60.84;100633.31;5040234;28;20211;-78
2022/07/18 00:16:54;;;;;;;78.95;75.13;;;19.10;86.60;;;19.47;61.34;100659.09;5047648;28;20199;-79
2022/07/18 00:19:22;;;;;;;19.50;17.98;;;19.10;87.40;;;19.42;62.24;100665.50;5033166;28;20214;-79
2022/07/18 00:21:50;;;;;;;6.35;4.07;;;19.10;87.80;;;19.17;64.15;100686.63;5045444;28;20227;-78
2022/07/18 00:24:18;;;;;;;7.10;2.67;;;18.90;90.80;;;19.08;65.15;100698.44;5048546;28;20195;-79
2022/07/18 00:26:46;;;;;;;12.73;11.48;;;18.90;91.10;;;18.76;66.79;100716.97;5039439;28;20203;-78
2022/07/18 00:29:15;;;;;;;4.70;2.45;;;18.80;92.50;;;18.73;65.22;100693.81;5049444;28;20706;-78
2022/07/18 00:31:43;;;;;;;5.40;1.90;;;18.70;91.80;;;18.78;62.83;100678.53;5050059;28;20205;-78
2022/07/18 00:34:11;;;;;;;12.57;3.20;;;18.70;90.90;;;18.78;63.05;100689.25;5041708;28;20681;-79
2022/07/18 00:36:39;;;;;;;6.28;1.67;;;18.60;91.00;;;18.69;64.31;100715.34;5042803;28;20230;-78
2022/07/18 00:39:06;;;;;;;5.68;1.30;;;18.60;92.30;;;18.60;66.00;100745.84;5044525;28;20215;-79
2022/07/18 00:41:34;;;;;;;5.05;1.23;;;18.50;93.50;;;18.71;63.19;100722.44;5044396;28;20231;-79
2022/07/18 00:44:03;;;;;;;11.77;2.70;;;18.40;91.80;;;18.42;66.59;100748.84;5043044;28;20614;-79
2022/07/18 00:46:31;;;;;;;10.88;2.38;;;18.40;93.90;;;18.33;67.42;100751.69;5047448;28;20235;-79
2022/07/18 00:49:00;;;;;;;2.55;0.85;;;18.30;94.30;;;18.44;65.88;100761.31;5041718;28;20229;-79
2022/07/18 00:51:27;;;;;;;4.15;1.05;;;18.30;94.10;;;18.18;67.58;100774.22;5046122;28;20206;-78
2022/07/18 00:53:55;;;;;;;9.20;2.05;;;18.20;95.20;;;18.14;66.23;100754.66;5046036;28;20211;-78
2022/07/18 00:56:23;;;;;;;1.67;0.50;;;18.10;95.20;;;18.07;69.04;100793.13;5037700;28;20234;-78
2022/07/18 00:58:51;;;;;;;6.72;1.73;;;18.10;96.80;;;17.86;70.50;100807.72;5046369;28;20680;-78
2022/07/18 01:04:05;;;;;;;11.50;2.70;;;17.90;97.00;;;17.66;69.25;100792.84;5043642;28;20229;-79
2022/07/18 01:06:33;;;;;;;28.95;6.00;;;17.70;97.50;;;17.58;69.55;100798.31;5044441;28;20234;-79
2022/07/18 01:09:01;;;;;;;6.68;1.63;;;17.60;97.80;;;17.48;69.54;100807.34;5048356;28;20206;-78
2022/07/18 01:11:29;;;;;;;5.32;1.45;;;17.50;98.20;;;17.30;70.68;100811.16;5053575;28;20564;-78
2022/07/18 01:13:58;;;;;;;9.27;2.25;;;17.40;99.50;;;17.27;70.94;100830.78;5033953;28;20203;-78
2022/07/18 01:16:26;;;;;;;5.40;1.35;;;17.30;99.80;;;17.17;70.62;100836.25;5035450;28;20231;-78
2022/07/18 01:18:54;;;;;;;4.88;1.20;;;17.20;99.90;;;17.00;72.37;100847.13;5035650;28;20238;-78
2022/07/18 01:21:22;;;;;;;2.67;0.98;;;17.20;99.90;;;16.93;72.18;100859.69;5035304;28;20227;-78
2022/07/18 01:23:51;;;;;;;4.40;1.08;;;17.10;99.90;;;16.98;72.41;100880.13;5040125;28;20210;-78
2022/07/18 01:26:19;;;;;;;2.85;1.00;;;17.00;99.90;;;16.90;73.24;100896.19;5047671;28;20230;-78
2022/07/18 01:28:47;;;;;;;4.40;1.15;;;17.00;99.90;;;16.77;76.18;100930.13;5039806;28;20210;-78
2022/07/18 01:31:16;;;;;;;8.00;2.50;;;;;;;16.91;75.09;100963.00;5040871;28;20203;-78
2022/07/18 01:33:43;;;;;;;6.38;5.75;;;16.90;99.90;;;16.87;76.32;100990.59;5053408;28;20203;-78
2022/07/18 01:36:11;;;;;;;6.93;2.28;;;16.90;99.90;;;17.00;74.89;101002.13;5045986;28;20234;-78
2022/07/18 01:38:39;;;;;;;5.13;1.73;;;16.90;99.90;;;17.01;73.75;100989.63;5038498;28;20211;-79
2022/07/18 01:41:08;;;;;;;5.45;1.65;;;16.80;99.90;;;16.93;71.84;100969.22;5038056;28;20210;-79
2022/07/18 01:43:41;;;;;;;5.07;1.85;;;16.80;99.90;;;16.84;73.26;100966.59;5050104;28;20203;-77
2022/07/18 01:46:10;;;;;;;5.03;1.85;;;16.80;99.90;;;16.62;75.53;100988.97;5050611;28;20226;-78
2022/07/18 01:48:40;;;;;;;3.45;1.48;;;16.70;99.90;;;16.63;75.81;100993.41;5048584;28;20257;-78
2022/07/18 01:51:11;;;;;;;3.38;0.85;;;16.60;99.90;;;16.43;77.37;101000.69;5052823;28;20213;-79
2022/07/18 01:53:41;;;;;;;6.13;1.50;;;16.60;99.90;;;16.44;78.43;101032.69;5045564;28;20218;-79
2022/07/18 01:56:12;;;;;;;7.68;1.80;;;16.50;99.90;;;16.49;79.02;101057.59;5062948;28;20226;-78
2022/07/18 01:58:40;;;;;;;2.38;0.70;;;16.50;99.90;;;16.23;78.46;101044.38;5050151;28;20207;-78
2022/07/18 02:01:08;;;;;;;4.85;1.23;;;16.40;99.90;;;16.09;79.94;101045.31;5044306;28;20195;-78
2022/07/18 02:03:36;;;;;;;6.00;1.42;;;16.30;99.90;;;16.04;80.39;101072.03;5045216;28;20218;-78
2022/07/18 02:06:04;;;;;;;4.10;1.10;;;16.20;99.90;;;15.73;81.66;101065.00;5048988;28;20235;-78
2022/07/18 02:08:33;;;;;;;3.22;0.88;;;16.00;99.90;;;15.62;81.40;101068.56;5050818;28;20202;-78
2022/07/18 02:11:01;;;;;;;3.50;1.02;;;15.80;99.90;;;15.71;80.56;101083.66;5043750;28;20203;-78
2022/07/18 02:13:28;;;;;;;3.85;1.08;;;15.80;99.90;;;15.67;79.98;101082.78;5026499;28;20209;-78
2022/07/18 02:15:56;;;;;;;6.72;1.80;;;15.70;99.90;;;15.62;80.07;101089.91;5047023;28;20218;-78
2022/07/18 02:18:24;;;;;;;6.60;1.65;;;15.70;99.90;;;15.61;80.44;101093.44;5047983;28;20218;-78
2022/07/18 02:20:52;;;;;;;4.13;1.15;;;15.70;99.90;;;15.59;81.06;101119.19;5045153;28;20202;-78
2022/07/18 02:23:20;;;;;;;6.65;1.85;;;15.70;99.90;;;15.73;80.71;101145.00;5044764;28;20241;-78
2022/07/18 02:25:48;;;;;;;2.53;0.90;;;15.60;99.90;;;15.59;81.58;101147.63;5056956;28;20734;-78
2022/07/18 02:28:16;;;;;;;5.70;1.65;;;15.70;99.90;;;15.58;82.33;101154.75;5049319;28;20206;-78
2022/07/18 02:30:44;;;;;;;7.15;1.83;;;15.60;99.90;;;15.60;81.97;101161.00;5042605;28;20207;-78
2022/07/18 02:33:12;;;;;;;5.13;1.52;;;15.60;99.90;;;15.59;81.60;101159.19;5043673;28;20214;-78
2022/07/18 02:35:41;;;;;;;5.25;1.48;;;15.60;99.90;;;15.67;81.18;101169.88;5043908;28;20234;-78
2022/07/18 02:38:09;;;;;;;14.30;3.13;;;15.60;99.90;;;15.88;79.92;101176.97;5046093;28;20202;-78
2022/07/18 02:40:38;;;;;;;5.03;1.45;;;15.70;99.90;;;15.91;78.98;101182.31;5049894;28;20210;-78
2022/07/18 02:43:05;;;;;;;4.63;1.23;;;15.70;99.90;;;15.91;77.52;101150.31;5043067;28;20238;-78
2022/07/18 02:45:33;;;;;;;5.28;1.63;;;15.70;99.90;;;16.05;76.05;101145.84;5048364;28;20218;-78
2022/07/18 02:48:06;;;;;;;5.88;1.65;;;15.80;99.90;;;15.93;77.42;101146.75;5048054;28;20218;-78
2022/07/18 02:50:34;;;;;;;5.65;1.52;;;15.70;99.90;;;16.22;72.84;101124.44;5046086;28;20215;-79
2022/07/18 02:53:02;;;;;;;2.22;0.90;;;15.80;99.90;;;16.27;72.00;101101.28;5034147;28;20211;-78
2022/07/18 02:55:30;;;;;;;6.50;1.85;;;15.90;99.90;;;16.19;73.55;101104.00;5033049;28;20216;-78
2022/07/18 02:57:58;;;;;;;3.53;1.35;;;15.90;99.90;;;15.99;76.16;101120.06;5032110;28;20203;-78
2022/07/18 03:00:26;;;;;;;7.55;2.22;;;15.90;99.90;;;15.79;78.03;101120.97;5033604;28;20203;-78
2022/07/18 03:02:54;;;;;;;6.10;2.15;;;15.80;99.90;;;15.74;79.36;101138.78;5046896;28;20238;-78
2022/07/18 03:05:22;;;;;;;4.75;1.58;;;15.70;99.90;;;15.65;80.94;101156.56;5048506;28;20238;-78
2022/07/18 03:07:50;;;;;;;5.05;1.83;;;15.70;99.90;;;15.62;79.38;101145.88;5041548;28;20211;-78
2022/07/18 03:10:18;;;;;;;5.95;2.58;;;15.60;99.90;;;15.60;78.47;101138.75;5036394;28;20200;-78
2022/07/18 03:12:46;;;;;;;6.95;2.75;;;15.60;99.90;;;15.52;79.64;101148.50;5037892;28;20203;-78
2022/07/18 03:15:14;;;;;;;9.40;4.05;;;15.50;99.90;;;15.70;76.82;101150.34;5039755;28;20230;-78
2022/07/18 03:17:41;;;;;;;5.55;4.05;;;15.50;99.90;;;15.66;79.37;101173.44;5045299;28;20233;-79
2022/07/18 03:20:10;;;;;;;8.23;3.72;;;15.50;99.90;;;15.66;77.00;101155.66;5034324;28;20202;-78
2022/07/18 03:22:38;;;;;;;9.07;4.45;;;15.50;99.90;;;15.57;78.63;101171.63;5048633;28;20218;-78
2022/07/18 03:25:07;;;;;;;4.38;3.15;;;15.50;99.90;;;15.57;79.69;101184.03;5041196;28;20223;-78
2022/07/18 03:27:42;;;;;;;8.35;4.20;;;15.50;99.90;;;15.46;80.34;101185.81;5046491;28;20198;-78
2022/07/18 03:30:11;;;;;;;9.88;5.05;;;15.40;99.90;;;15.36;81.02;101188.47;5038564;28;20218;-78
2022/07/18 03:32:39;;;;;;;5.82;3.35;;;15.40;99.90;;;15.32;82.26;101208.00;5055165;28;20197;-78
2022/07/18 03:35:07;;;;;;;10.27;6.32;;;15.30;99.90;;;15.22;83.95;101232.84;5032525;28;20242;-78
2022/07/18 03:37:35;;;;;;;8.05;6.00;;;15.30;99.90;;;15.36;80.11;101216.88;5045242;28;20190;-78
2022/07/18 03:40:04;;;;;;;3.55;3.22;;;15.20;99.90;;;15.43;78.50;101208.00;5047140;28;20203;-78
2022/07/18 03:42:32;;;;;;;9.10;4.70;;;15.30;99.90;;;15.47;76.96;101196.47;5042380;28;20238;-78
2022/07/18 03:45:00;;;;;;;6.43;5.57;;;15.30;99.90;;;15.53;80.27;101236.47;5059097;28;20602;-78
2022/07/18 03:47:28;;;;;;;6.00;5.40;;;15.30;99.90;;;15.40;80.53;101236.44;5058951;28;20218;-78
2022/07/18 03:49:56;;;;;;;5.90;5.00;;;15.30;99.90;;;15.28;81.63;101242.63;5035483;28;20195;-78
2022/07/18 03:52:24;;;;;;;7.97;7.30;;;15.20;99.90;;;14.97;83.81;101246.97;5034707;28;20207;-78
2022/07/18 03:54:52;;;;;;;6.85;6.22;;;15.20;99.90;;;14.79;87.01;101262.88;5043273;28;20230;-78
2022/07/18 03:57:20;;;;;;;10.73;8.88;;;15.00;99.90;;;14.67;85.04;101237.97;5030512;28;20218;-78
2022/07/18 03:59:47;;;;;;;9.32;8.45;;;14.90;99.90;;;14.69;87.70;101276.13;5037181;28;20207;-78
2022/07/18 04:02:15;;;;;;;10.65;8.30;;;14.90;99.90;;;14.66;88.44;101304.50;5051406;28;20221;-78
2022/07/18 04:04:43;;;;;;;9.20;8.38;;;14.80;99.90;;;14.68;86.43;101300.97;5046516;28;20226;-78
2022/07/18 04:07:11;;;;;;;10.80;9.90;;;14.70;99.90;;;14.80;85.25;101302.81;5044979;28;20209;-77
2022/07/18 04:09:39;;;;;;;12.05;11.25;;;14.70;99.90;;;14.82;85.96;101311.72;5049274;28;20206;-78
2022/07/18 04:12:07;;;;;;;15.40;14.35;;;14.70;99.90;;;14.78;86.44;101322.34;5052951;28;20222;-78
2022/07/18 04:14:35;;;;;;;10.77;8.60;;;14.80;99.90;;;15.15;84.61;101372.25;5033095;28;20218;-78
2022/07/18 04:17:03;;;;;;;13.13;12.23;;;14.80;99.90;;;15.25;84.43;101375.88;5038082;28;20311;-78
2022/07/18 04:19:31;;;;;;;12.10;11.05;;;15.00;99.90;;;15.28;86.15;101391.88;5045193;28;20198;-78
2022/07/18 04:21:59;;;;;;;20.75;18.98;;;15.00;99.90;;;15.26;87.53;101414.97;5050006;28;20231;-78
2022/07/18 04:24:27;;;;;;;20.58;19.33;;;15.00;99.90;;;15.24;88.61;101417.63;5051802;28;20238;-78
2022/07/18 04:26:55;;;;;;;23.35;21.65;;;15.00;99.90;;;15.57;80.44;101386.66;5036853;28;20203;-78
2022/07/18 04:29:23;;;;;;;32.17;30.25;;;15.10;99.90;;;15.74;79.76;101360.13;5043204;28;20211;-78
2022/07/18 04:31:51;;;;;;;30.42;28.63;;;15.30;99.90;;;15.67;78.16;101328.09;5043060;28;20203;-78
2022/07/18 04:34:19;;;;;;;38.03;36.00;;;15.30;99.90;;;15.77;76.31;101280.13;5048634;28;20207;-78
2022/07/18 04:36:47;;;;;;;32.65;30.80;;;15.30;99.90;;;15.91;78.58;101321.03;5048459;28;20207;-78
2022/07/18 04:39:16;;;;;;;26.52;25.25;;;15.40;99.90;;;15.84;79.88;101335.25;5046474;28;20218;-78
2022/07/18 04:41:44;;;;;;;32.00;30.20;;;15.50;99.90;;;15.58;82.47;101344.03;5044476;28;20214;-78
2022/07/18 04:44:12;;;;;;;27.30;25.15;;;15.40;99.90;;;15.56;85.69;101371.56;5040523;28;20227;-77
2022/07/18 04:46:40;;;;;;;23.27;21.77;;;15.40;99.90;;;15.57;84.85;101374.25;5046796;28;20237;-77
2022/07/18 04:49:08;;;;;;;18.15;16.92;;;15.40;99.90;;;15.60;82.88;101363.63;5057720;28;20217;-77
2022/07/18 04:51:36;;;;;;;20.00;18.90;;;15.30;99.90;;;15.73;80.64;101348.56;5051590;28;20651;-77
2022/07/18 04:54:04;;;;;;;46.95;44.40;;;15.30;99.90;;;15.87;80.94;101360.16;5054163;28;20210;-77
2022/07/18 04:56:32;;;;;;;32.85;31.35;;;15.40;99.90;;;15.94;82.60;101383.28;5038047;28;20231;-77
2022/07/18 04:59:00;;;;;;;27.83;25.83;;;15.50;99.90;;;15.91;82.80;101391.28;5052372;28;20215;-77
2022/07/18 05:01:28;;;;;;;22.63;21.40;;;15.60;99.90;;;16.01;86.21;101442.88;5051149;28;20207;-79
2022/07/18 05:03:56;;;;;;;24.05;22.65;;;;;;;16.18;82.74;101442.94;5041624;28;20241;-79
2022/07/18 05:06:24;;;;;;;23.20;21.17;;;15.70;99.90;;;16.45;81.26;101439.41;5045865;28;20691;-79
2022/07/18 05:08:52;;;;;;;23.88;22.13;;;15.80;99.90;;;16.53;81.73;101440.31;5040825;28;20207;-79
2022/07/18 05:11:20;;;;;;;25.80;24.70;;;16.00;99.90;;;16.52;84.27;101455.44;5047799;28;20217;-79
2022/07/18 05:13:48;;;;;;;31.60;29.63;;;16.00;99.90;;;16.62;84.53;101483.94;5057384;28;20215;-80
2022/07/18 05:16:16;;;;;;;34.42;32.85;;;16.10;99.90;;;16.90;82.85;101500.00;5036298;28;20218;-79
2022/07/18 05:18:45;;;;;;;39.47;36.97;;;16.20;99.90;;;17.10;81.82;101490.22;5037086;28;20211;-79
2022/07/18 05:21:12;;;;;;;39.90;37.38;;;16.30;99.90;;;17.15;82.81;101493.78;5043573;28;20679;-80
2022/07/18 05:23:41;;;;;;;43.53;41.38;;;16.30;99.90;;;17.29;82.82;101509.81;5034085;28;20239;-80
2022/07/18 05:26:09;;;;;;;39.47;37.42;;;16.50;99.90;;;17.31;83.39;101512.47;5034472;28;20223;-79
2022/07/18 05:28:37;;;;;;;39.97;37.95;;;16.60;99.90;;;17.29;82.87;101499.13;5040922;28;20214;-79
2022/07/18 05:31:05;;;;;;;30.83;29.60;;;16.70;99.90;;;17.40;78.60;101459.00;5041151;28;20572;-79
2022/07/18 05:33:33;;;;;;;25.85;24.67;;;16.80;99.90;;;17.48;77.58;101419.75;5037277;28;20199;-79
2022/07/18 05:36:04;;;;;;;30.88;29.27;;;16.80;99.90;;;17.65;75.08;101392.91;5033802;28;20238;-79
2022/07/18 05:38:32;;;;;;;35.78;34.05;;;16.90;99.90;;;17.74;74.91;101379.53;5033794;28;20215;-80
2022/07/18 05:41:00;;;;;;;43.28;41.53;;;17.00;99.90;;;17.94;74.17;101374.94;5049561;28;20210;-80
2022/07/18 05:43:28;;;;;;;49.42;47.35;;;17.10;99.90;;;18.09;74.49;101368.59;5056147;28;20230;-80
2022/07/18 05:45:56;;;;;;;204.57;195.93;;;;;;;18.28;75.27;101390.81;5041495;28;20223;-80
2022/07/18 05:48:24;;;;;;;290.05;278.50;;;17.50;99.90;;;18.33;76.27;101402.38;5036564;28;20215;-80
2022/07/18 05:50:53;;;;;;;247.82;238.07;;;;;;;18.40;74.80;101388.03;5036559;28;20214;-80
2022/07/18 05:53:20;;;;;;;116.18;111.50;;;17.60;99.90;;;18.50;74.32;101361.16;5046814;28;20203;-80
2022/07/18 05:55:48;;;;;;;160.07;152.98;;;17.70;99.90;;;18.67;72.65;101339.63;5052662;28;20223;-80
2022/07/18 05:58:17;;;;;;;258.70;248.07;;;;;;;18.71;72.91;101327.06;5036070;28;20218;-80
2022/07/18 06:00:45;;;;;;;388.73;372.90;;;;;;;18.71;73.39;101325.28;5038826;28;20202;-79
2022/07/18 06:03:13;;;;;;;396.20;379.20;;;;;;;18.79;73.58;101328.78;5041054;28;20210;-79
2022/07/18 06:05:41;;;;;;;380.23;363.63;;;;;;;19.15;73.99;101353.38;5044826;28;20234;-78
2022/07/18 06:08:10;;;;;;;470.42;449.17;;;;;;;19.27;72.21;101336.25;5037634;28;20207;-80
2022/07/18 06:10:38;;;;;;;532.95;509.15;;;;;;;19.30;72.50;101330.88;5056448;28;20209;-80
2022/07/18 06:13:13;;;;;;;772.05;733.28;;;;;;;19.46;72.98;101338.69;5037581;28;20205;-80
2022/07/18 06:15:41;;;;;;;692.25;656.17;;;;;;;19.66;70.72;101306.28;5043432;28;20229;-80
2022/07/18 06:18:09;;;;;;;146.93;140.30;;;19.00;99.90;;;19.83;70.84;101303.34;5040355;28;20214;-80
2022/07/18 06:20:37;;;;;;;168.32;160.95;;;19.00;99.90;;;19.92;68.72;101260.25;5045211;28;20224;-81
2022/07/18 06:23:06;;;;;;;0.10;0.10;;;;;;;20.20;68.88;101260.69;5046748;28;20199;-78
2022/07/18 06:25:34;;;;;;;0.10;0.10;;;19.60;99.90;;;20.46;67.52;101236.06;5041122;28;20231;-80
2022/07/18 06:28:02;;;;;;;0.10;0.10;;;19.80;99.90;;;20.61;67.58;101230.38;5051540;28;20206;-81
2022/07/18 06:30:31;;;;;;;0.10;0.10;;;;;;;20.59;67.02;101205.34;5049964;28;20247;-80
2022/07/18 06:32:59;;;;;;;0.20;0.20;;;20.00;99.90;;;20.83;67.25;101208.47;5042879;28;20213;-79
2022/07/18 06:35:27;;;;;;;0.10;0.10;;;20.10;99.90;;;20.71;67.16;101180.91;5045531;28;20226;-81
2022/07/18 06:37:55;;;;;;;0.10;0.10;;;20.10;99.90;;;20.82;67.10;101186.09;5041308;28;20199;-80
2022/07/18 06:40:25;;;;;;;0.10;0.10;;;20.30;99.90;;;21.05;68.82;101208.00;5045340;28;20222;-80
2022/07/18 06:42:53;;;;;;;0.00;0.00;;;20.50;99.90;;;21.19;67.21;101190.66;5049705;28;20205;-79
2022/07/18 06:45:21;;;;;;;0.10;0.10;;;;;;;21.43;66.73;101175.78;5056356;28;20235;-81
2022/07/18 06:47:50;;;;;;;0.10;0.10;;;;;;;21.44;66.45;101156.91;5057824;28;20219;-80
2022/07/18 06:50:18;;;;;;;0.10;0.10;;;;;;;21.64;65.23;101135.75;5044452;28;20214;-79
2022/07/18 06:52:46;;;;;;;0.10;0.10;;;;;;;21.92;63.68;101111.69;5050024;28;20215;-80
2022/07/18 06:55:14;;;;;;;0.00;0.00;;;21.30;99.90;;;21.77;63.49;101063.63;5024710;28;20246;-82
2022/07/18 06:57:43;;;;;;;0.00;0.00;;;21.40;99.90;;;22.01;62.99;101083.63;5054209;28;20187;-79
2022/07/18 07:00:14;;;;;;;0.10;0.10;;;21.50;99.90;;;22.06;62.10;101045.81;5042776;28;20199;-81
2022/07/18 07:02:49;;;;;;;0.00;0.00;;;21.70;99.90;;;22.45;62.99;101071.63;5053142;28;20210;-81
2022/07/18 07:05:18;;;;;;;0.10;0.10;;;21.90;99.90;;;22.59;62.02;101041.56;5050034;28;20233;-81
2022/07/18 07:07:47;;;;;;;0.00;0.00;;;;;;;22.64;62.58;101045.00;5056876;28;20213;-81
2022/07/18 07:10:17;;;;;;;0.00;0.00;;;22.20;99.90;;;22.57;63.05;101028.13;5045377;28;20195;-80
2022/07/18 07:12:49;;;;;;;0.00;0.00;;;22.40;99.90;;;22.75;62.98;101031.19;5041644;28;20195;-79
2022/07/18 07:15:22;;;;;;;0.00;0.00;;;22.50;99.90;;;22.92;61.63;101004.59;5037830;28;20233;-81
2022/07/18 07:17:51;;;;;;;0.00;0.00;;;22.90;99.90;;;23.31;61.38;101032.03;5037053;28;20219;-81
2022/07/18 07:20:21;;;;;;;0.10;0.10;;;;;;;23.06;60.08;100950.16;5047579;28;20222;-78
2022/07/18 07:22:57;;;;;;;0.00;0.00;;;22.90;99.90;;;23.00;60.34;100926.97;5041956;28;20203;-79
2022/07/18 07:25:26;;;;;;;0.00;0.00;;;22.90;99.90;;;23.22;60.38;100940.59;5048461;28;20238;-81
2022/07/18 07:27:55;;;;;;;0.00;0.00;;;;;;;23.58;60.84;100982.56;5043024;28;20203;-81
2022/07/18 07:30:23;;;;;;;0.52;0.52;;;;;;;23.11;60.07;100892.41;5041146;28;20213;-79
2022/07/18 07:32:52;;;;;;;0.10;0.10;;;;;;;23.80;60.50;100963.75;5038833;28;20214;-80
2022/07/18 07:35:21;;;;;;;0.00;0.00;;;23.60;99.90;;;23.69;60.44;100920.06;5042890;28;20703;-81
2022/07/18 07:37:54;;;;;;;0.00;0.00;;;23.80;99.90;;;23.99;59.86;100925.22;5018317;28;20199;-81
2022/07/18 07:40:27;;;;;;;0.10;0.10;;;23.80;99.90;;;23.97;59.11;100886.59;5043944;28;20221;-81
2022/07/18 07:43:11;;;;;;;0.00;0.00;;;24.20;99.90;;;24.52;59.75;100931.25;5040996;28;20209;-81
2022/07/18 07:45:40;;;;;;;0.10;0.10;;;;;;;24.52;58.01;100858.22;5040283;28;20237;-81
2022/07/18 07:48:09;;;;;;;0.10;0.10;;;24.70;99.90;;;24.31;58.93;100822.16;5041146;28;20202;-81
2022/07/18 07:50:37;;;;;;;0.20;0.20;;;;;;;24.64;59.74;100868.53;5043464;28;20661;-81
2022/07/18 07:53:06;;;;;;;0.00;0.00;;;;;;;25.78;58.56;100920.41;5056092;23;20232;-76
2022/07/18 07:55:34;;;;;;;0.00;0.00;;;25.50;99.90;;;25.11;58.65;100819.66;5002172;28;20242;-76
2022/07/18 07:58:04;;;;;;;0.10;0.10;;;;;;;25.44;58.85;100856.03;4998892;28;20215;-76
2022/07/18 08:00:33;;;;;;;0.00;0.00;;;;;;;25.67;57.03;100818.91;5003307;28;20226;-75
2022/07/18 08:03:05;;;;;;;0.00;0.00;;;26.10;98.80;;;25.37;55.43;100711.06;5032353;23;20234;-79
2022/07/18 08:05:43;;;;;;;0.00;0.00;;;26.00;99.90;;;25.97;56.21;100770.47;5017579;28;20644;-79
2022/07/18 08:08:12;;;;;;;0.10;0.10;;;26.10;94.80;;;25.69;52.15;100635.50;5020416;28;20213;-80
2022/07/18 08:10:41;;;;;;;0.10;0.10;;;;;;;26.49;54.29;100741.66;5020801;28;20210;-80
2022/07/18 08:13:12;;;;;;;0.00;0.00;;;27.10;96.90;;;27.50;53.71;100761.56;5019258;28;20218;-80
2022/07/18 08:15:41;;;;;;;0.00;0.00;;;;;;;26.99;50.50;100594.28;5019424;28;20219;-81
2022/07/18 08:18:09;;;;;;;0.00;0.00;;;;;;;26.29;51.11;100485.09;5017877;28;20211;-78
2022/07/18 08:20:37;;;;;;;0.00;0.00;;;27.60;92.00;;;26.81;50.11;100522.88;5009430;28;20208;-78
2022/07/18 08:23:11;;;;;;;0.00;0.00;;;27.40;90.90;;;26.57;51.98;100489.00;5020342;28;20217;-78
2022/07/18 08:25:43;;;;;;;0.00;0.00;;;27.50;92.30;;;27.10;52.55;100576.41;5020157;28;20231;-78
2022/07/18 08:28:13;;;;;;;0.00;0.00;;;27.90;91.60;;;27.15;52.35;100546.28;5015662;28;20207;-79
2022/07/18 08:30:42;;;;;;;0.00;0.00;;;;;;;27.94;52.85;100627.72;5021503;28;20206;-78
2022/07/18 08:33:10;;;;;;;0.00;0.00;;;;;;;26.73;50.98;100413.94;5017750;28;20234;-78
2022/07/18 08:35:38;;;;;;;0.00;0.00;;;27.90;88.60;;;27.08;51.92;100471.59;5018301;28;20230;-79
2022/07/18 08:38:07;;;;;;;0.00;0.00;;;;;;;27.16;52.91;100493.75;5028216;28;20217;-79
2022/07/18 08:40:37;;;;;;;0.00;0.00;;;27.80;89.00;;;27.47;50.55;100479.25;5036003;28;20206;-79
2022/07/18 08:43:05;;;;;;;0.00;0.00;;;28.80;90.70;;;28.71;50.23;100558.63;5030042;28;20694;-80
2022/07/18 08:45:49;;;;;;;0.00;0.00;;;;;;;28.23;48.40;100416.59;5031958;28;20230;-79
2022/07/18 08:48:18;;;;;;;0.00;0.00;;;;;;;29.31;49.06;100537.41;5013495;28;20218;-78
2022/07/18 08:50:47;;;;;;;0.00;0.00;;;29.50;82.50;;;28.38;48.69;100388.38;5028535;28;20199;-78
2022/07/18 08:53:18;;;;;;;0.00;0.00;;;29.50;81.10;;;28.19;48.65;100344.31;5019882;28;20655;-77
2022/07/18 08:55:48;;;;;;;0.00;0.00;;;30.40;82.30;;;28.94;48.52;100419.19;5025195;28;20226;-78
2022/07/18 08:58:17;;;;;;;0.00;0.00;;;29.70;77.50;;;28.56;48.27;100337.31;5024880;28;20211;-78
2022/07/18 09:01:06;;;;;;;0.52;0.52;;;30.10;76.30;;;28.64;47.47;100313.22;5027472;28;20215;-77
2022/07/18 09:03:34;;;;;;;0.00;0.00;;;29.40;77.10;;;28.17;48.91;100257.41;5031355;28;20210;-78
2022/07/18 09:06:12;;;;;;;0.00;0.00;;;29.20;73.80;;;28.35;47.31;100237.16;5025609;28;20243;-78
2022/07/18 09:09:01;;;;;;;0.00;0.00;;;29.90;76.00;;;29.25;47.09;100323.50;5037077;28;20218;-78
2022/07/18 09:11:29;;;;;;;0.00;0.00;;;;;;;28.80;47.97;100259.50;5028259;28;20218;-82
2022/07/18 09:14:39;;;;;;;0.00;0.00;;;29.40;72.30;;;28.75;46.41;100211.81;5037106;28;20667;-78
2022/07/18 09:17:21;;;;;;;0.00;0.00;;;30.20;76.40;;;31.12;47.13;100448.06;5022476;28;20679;-78
2022/07/18 09:20:00;;;;;;;0.38;0.38;;;30.70;67.10;;;29.18;44.84;100133.41;5028341;28;20218;-78
2022/07/18 09:22:35;;;;;;;0.00;0.00;;;30.80;69.90;;;29.97;46.01;100244.78;5022953;28;20667;-78
2022/07/18 09:25:03;;;;;;;0.00;0.00;;;;;;;29.88;44.33;100148.16;5025154;28;20219;-80
2022/07/18 09:27:41;;;;;;;0.00;0.00;;;;;;;29.61;45.32;100126.56;5024651;28;20211;-78
2022/07/18 09:30:35;;;;;;;0.00;0.00;;;31.30;67.90;;;30.54;45.70;100239.53;5019337;28;20206;-80
2022/07/18 09:33:03;;;;;;;0.00;0.00;;;31.10;64.70;;;29.58;45.42;100080.47;5025791;28;20215;-79
2022/07/18 09:35:36;;;;;;;0.00;0.00;;;31.80;67.10;;;30.60;46.09;100212.78;5027048;28;20261;-79
2022/07/18 09:38:10;;;;;;;0.00;0.00;;;32.30;68.40;;;30.95;46.51;100265.50;5031864;28;20199;-80
2022/07/18 09:40:43;;;;;;;0.00;0.00;;;32.40;61.90;;;30.10;45.00;100081.13;5021741;28;20202;-79
2022/07/18 09:43:16;;;;;;;0.22;0.22;;;31.80;63.50;;;30.03;45.43;100091.66;5024098;28;20219;-77
2022/07/18 09:45:51;;;;;;;0.00;0.00;;;31.70;62.80;;;30.28;44.33;100096.06;5027140;28;20237;-78
2022/07/18 09:48:27;;;;;;;0.00;0.00;;;31.70;62.40;;;30.49;45.48;100121.66;5021860;28;20202;-79
2022/07/18 09:51:03;;;;;;;0.00;0.00;;;32.60;67.40;;;31.81;46.08;100286.91;5021775;28;20206;-79
2022/07/18 09:53:37;;;;;;;0.20;0.20;;;33.40;65.30;;;31.79;45.16;100246.00;5024160;28;20202;-79
2022/07/18 09:56:09;;;;;;;0.10;0.10;;;34.00;64.70;;;32.08;45.39;100231.78;5024912;28;20229;-78
2022/07/18 09:58:49;;;;;;;0.30;0.30;;;34.50;64.60;;;32.03;43.96;100127.34;5024400;28;20213;-79
2022/07/18 10:01:18;;;;;;;0.70;0.70;;;;;;;32.41;43.97;100162.41;5022683;28;20213;-78
2022/07/18 10:03:48;;;;;;;0.00;0.00;;;34.30;59.40;;;31.55;44.31;100042.13;5033494;23;20251;-79
2022/07/18 10:06:18;;;;;;;0.00;0.00;;;29.20;56.60;;;30.73;44.59;100009.69;5000731;28;20242;-78
2022/07/18 10:08:46;;;;;;;0.00;0.00;;;32.90;64.00;;;32.45;45.37;100189.38;4997548;28;20215;-80
2022/07/18 10:11:14;;;;;;;0.10;0.10;;;;;;;31.92;43.55;100065.38;5001003;28;20215;-81
2022/07/18 10:13:43;;;;;;;0.00;0.00;;;33.50;59.50;;;31.27;43.88;99997.13;4997159;28;20208;-78
2022/07/18 10:16:12;;;;;;;0.00;0.00;;;;;;;33.90;44.45;100258.84;5000794;28;20237;-80
2022/07/18 10:18:40;;;;;;;0.20;0.20;;;;;;;33.78;45.02;100183.09;5001567;28;20207;-76
2022/07/18 10:21:12;;;;;;;0.10;0.10;;;35.30;57.30;;;32.49;42.43;99961.91;5003645;28;20223;-75
2022/07/18 10:23:47;;;;;;;0.35;0.30;;;35.70;58.80;;;33.91;43.13;100147.22;5017338;28;20207;-75
2022/07/18 10:26:27;;;;;;;0.60;0.40;;;35.60;55.10;;;32.46;41.82;99939.28;5001578;28;20239;-77
2022/07/18 10:28:56;;;;;;;1.75;1.20;;;;;;;32.37;42.21;99922.84;5001813;28;20214;-79
2022/07/18 10:31:41;;;;;;;0.30;0.30;;;36.80;58.00;;;33.89;43.45;100122.66;5001898;28;20208;-79
2022/07/18 10:34:10;;;;;;;0.43;0.35;;;;;;;32.37;41.18;99855.28;5003096;28;20715;-74